Time;durP1;ratioP1;P1;durP2;ratioP2;P2;SDS_P1;SDS_P2;PMS_P1;PMS_P2;Temp;Humidity;BMP_temperature;BMP_pressure;BME280_temperature;BME280_humidity;BME280_pressure;Samples;Min_cycle;Max_cycle;Signal;HPM_P1;HPM_P2
2022/04/07 00:01:30;;;;;;;11.05;5.65;;;;;;;7.87;100.00;97807.00;5077281;28;20028;-83
2022/04/07 00:03:56;;;;;;;9.90;4.93;;;;;;;7.87;100.00;97807.00;5076754;28;20043;-84
2022/04/07 00:06:21;;;;;;;8.23;5.45;;;;;;;7.93;100.00;97792.50;5076286;28;20024;-83
2022/04/07 00:08:46;;;;;;;9.70;5.10;;;;;;;7.94;100.00;97791.53;5076725;28;20032;-84
2022/04/07 00:11:12;;;;;;;9.93;5.20;;;;;;;7.90;100.00;97777.59;5076388;28;20546;-84
2022/04/07 00:13:37;;;;;;;9.35;4.95;;;;;;;7.93;100.00;97781.88;5075588;28;20048;-84
2022/04/07 00:16:03;;;;;;;10.35;5.03;;;;;;;7.92;100.00;97773.03;5076799;28;20048;-84
2022/04/07 00:18:29;;;;;;;7.97;5.22;;;;;;;7.91;100.00;97779.28;5073839;28;20032;-82
2022/04/07 00:20:54;;;;;;;9.05;5.70;;;;;;;7.82;100.00;97779.84;5076079;28;20539;-83
2022/04/07 00:23:20;;;;;;;9.18;5.60;;;;;;;7.83;100.00;97786.88;5077370;28;20397;-83
2022/04/07 00:25:46;;;;;;;7.65;5.60;;;;;;;7.79;100.00;97790.66;5076428;28;20020;-82
2022/04/07 00:28:12;;;;;;;11.75;6.60;;;;;;;7.65;100.00;97773.75;5076532;28;20070;-82
2022/04/07 00:30:39;;;;;;;12.15;7.55;;;;;;;7.43;100.00;97761.69;5077847;28;20078;-82
2022/04/07 00:33:05;;;;;;;12.98;7.28;;;;;;;7.35;100.00;97761.28;5078735;28;20046;-83
2022/04/07 00:35:31;;;;;;;11.63;7.53;;;;;;;7.31;100.00;97763.28;5041791;28;1084214;-83
2022/04/07 00:37:56;;;;;;;10.02;6.68;;;;;;;7.30;100.00;97755.38;5079927;28;20038;-82
2022/04/07 00:40:22;;;;;;;12.70;7.03;;;;;;;7.25;100.00;97751.19;5078202;28;20100;-82
2022/04/07 00:42:50;;;;;;;14.13;7.90;;;;;;;7.23;100.00;97752.22;5078611;28;20020;-82
2022/04/07 00:45:16;;;;;;;14.10;7.03;;;;;;;7.25;100.00;97748.56;5077439;28;20021;-82
2022/04/07 00:47:43;;;;;;;10.32;6.72;;;;;;;7.30;100.00;97748.28;5077939;28;20027;-82
2022/04/07 00:50:13;;;;;;;8.48;6.43;;;;;;;7.34;100.00;97733.03;5078421;28;20103;-82
2022/04/07 00:52:43;;;;;;;9.00;6.43;;;;;;;7.42;100.00;97740.56;5078425;28;20548;-82
2022/04/07 00:55:13;;;;;;;7.43;6.00;;;;;;;7.47;100.00;97723.41;5077329;28;20032;-82
2022/04/07 00:57:39;;;;;;;7.63;5.88;;;;;;;7.48;100.00;97719.81;5073957;28;20021;-82
2022/04/07 01:00:07;;;;;;;9.68;5.30;;;;;;;7.56;100.00;97706.06;5074573;28;20477;-82
2022/04/07 01:02:33;;;;;;;6.65;4.90;;;;;;;7.60;100.00;97698.78;5076479;28;20028;-82
2022/04/07 01:04:58;;;;;;;5.88;4.60;;;;;;;7.60;100.00;97709.41;5077222;28;20027;-82
2022/04/07 01:07:26;;;;;;;6.05;4.10;;;;;;;7.62;100.00;97699.56;5077702;28;20469;-82
2022/04/07 01:09:52;;;;;;;6.72;4.38;;;;;;;7.60;100.00;97681.03;5078115;28;20112;-82
2022/04/07 01:12:17;;;;;;;5.40;4.18;;;;;;;7.59;100.00;97689.09;5079605;28;20040;-83
2022/04/07 01:14:59;;;;;;;6.68;4.13;;;;;;;7.52;100.00;97674.50;5077713;28;20115;-83
2022/04/07 01:17:24;;;;;;;8.05;3.97;;;;;;;7.53;100.00;97671.72;5077232;28;20027;-82
2022/04/07 01:19:50;;;;;;;6.05;4.18;;;;;;;7.55;100.00;97669.00;5078262;28;20025;-83
2022/04/07 01:22:15;;;;;;;5.43;4.40;;;;;;;7.54;100.00;97669.94;5078818;28;20091;-83
2022/04/07 01:24:40;;;;;;;6.35;4.10;;;;;;;7.60;100.00;97665.09;5079107;28;20058;-83
2022/04/07 01:27:06;;;;;;;7.25;4.20;;;;;;;7.54;100.00;97656.66;5078415;28;20028;-83
2022/04/07 01:29:31;;;;;;;5.50;4.50;;;;;;;7.48;100.00;97655.22;5078562;28;20024;-83
2022/04/07 01:32:05;;;;;;;7.38;4.60;;;;;;;7.56;100.00;97645.00;5076086;28;20040;-82
2022/04/07 01:34:31;;;;;;;7.05;4.22;;;;;;;7.59;100.00;97642.16;5074954;28;20427;-82
2022/04/07 01:36:56;;;;;;;6.90;4.30;;;;;;;7.59;100.00;97630.69;5077326;28;20469;-82
2022/04/07 01:39:26;;;;;;;7.10;4.15;;;;;;;7.56;100.00;97630.84;5077732;28;20024;-83
2022/04/07 01:41:53;;;;;;;6.13;4.53;;;;;;;7.54;100.00;97638.94;5075414;28;20546;-83
2022/04/07 01:44:19;;;;;;;8.40;4.50;;;;;;;7.58;100.00;97618.34;5076956;28;20053;-82
2022/04/07 01:46:46;;;;;;;5.68;4.40;;;;;;;7.57;100.00;97625.47;5077538;28;20473;-83
2022/04/07 01:49:11;;;;;;;8.18;4.63;;;;;;;7.65;100.00;97624.16;5076812;28;20020;-83
2022/04/07 01:51:38;;;;;;;6.05;4.55;;;;;;;7.66;100.00;97612.56;5077311;28;20543;-84
2022/04/07 01:54:03;;;;;;;5.88;3.72;;;;;;;7.65;100.00;97619.69;5077670;28;20103;-83
2022/04/07 01:56:30;;;;;;;7.57;4.68;;;;;;;7.65;100.00;97614.38;5077490;28;20516;-83
2022/04/07 01:58:56;;;;;;;6.82;4.18;;;;;;;7.63;100.00;97616.25;5075571;28;20385;-84
2022/04/07 02:01:21;;;;;;;5.90;4.32;;;;;;;7.63;100.00;97605.63;5076451;28;20028;-82
2022/04/07 02:03:47;;;;;;;7.60;4.82;;;;;;;7.63;100.00;97602.97;5075383;28;20020;-83
2022/04/07 02:06:18;;;;;;;6.38;4.70;;;;;;;7.62;100.00;97609.25;5076285;28;20031;-83
2022/04/07 02:08:44;;;;;;;6.10;4.47;;;;;;;7.65;100.00;97602.91;5076694;28;20107;-83
2022/04/07 02:11:13;;;;;;;6.85;5.03;;;;;;;7.65;100.00;97602.91;5076796;28;20374;-82
2022/04/07 02:13:40;;;;;;;8.15;4.97;;;;;;;7.65;100.00;97592.28;5075928;28;20051;-82
2022/04/07 02:16:07;;;;;;;7.78;4.47;;;;;;;7.66;100.00;97586.84;5074891;28;20073;-81
2022/04/07 02:18:33;;;;;;;8.15;4.60;;;;;;;7.65;100.00;97573.69;5075101;28;20020;-81
2022/04/07 02:20:58;;;;;;;6.05;4.63;;;;;;;7.55;100.00;97563.63;5074172;28;20024;-81
2022/04/07 02:23:26;;;;;;;6.70;4.25;;;;;;;7.55;100.00;97568.09;5075446;28;20082;-82
2022/04/07 02:25:51;;;;;;;5.55;4.30;;;;;;;7.49;100.00;97572.84;5074292;28;20366;-82
2022/04/07 02:28:18;;;;;;;7.95;4.40;;;;;;;7.55;100.00;97554.81;5073018;28;20497;-82
2022/04/07 02:30:45;;;;;;;7.95;4.70;;;;;;;7.62;100.00;97571.22;5073148;28;20029;-82
2022/04/07 02:33:10;;;;;;;5.80;4.28;;;;;;;7.60;100.00;97545.59;5074463;28;20497;-82
2022/04/07 02:35:36;;;;;;;7.45;4.20;;;;;;;7.65;100.00;97544.47;5073144;28;20032;-81
2022/04/07 02:38:01;;;;;;;6.25;3.80;;;;;;;7.68;100.00;97534.50;5074693;28;20029;-81
2022/04/07 02:40:27;;;;;;;7.32;3.67;;;;;;;7.65;100.00;97552.44;5074343;28;20089;-82
2022/04/07 02:42:52;;;;;;;5.90;3.85;;;;;;;7.66;100.00;97539.06;5074308;28;20094;-82
2022/04/07 02:45:17;;;;;;;6.78;3.60;;;;;;;7.65;100.00;97521.44;5074090;28;20117;-81
2022/04/07 02:47:43;;;;;;;8.15;3.80;;;;;;;7.66;100.00;97531.09;5074479;28;20035;-81
2022/04/07 02:50:08;;;;;;;4.88;3.13;;;;;;;7.75;100.00;97523.50;5073727;28;20023;-81
2022/04/07 02:52:34;;;;;;;8.23;3.83;;;;;;;7.76;100.00;97527.84;5075287;28;20025;-81
2022/04/07 02:55:00;;;;;;;8.23;3.60;;;;;;;7.69;100.00;97530.91;5074710;28;20056;-82
2022/04/07 02:57:30;;;;;;;7.22;3.40;;;;;;;7.75;100.00;97518.19;5073154;28;20079;-82
2022/04/07 02:59:56;;;;;;;5.93;3.17;;;;;;;7.80;100.00;97526.72;5074475;28;20020;-81
2022/04/07 03:02:21;;;;;;;7.03;3.55;;;;;;;7.74;100.00;97521.78;5076453;28;20025;-82
2022/04/07 03:04:49;;;;;;;6.80;3.17;;;;;;;7.68;100.00;97512.41;5097181;22;20044;-85
2022/04/07 03:07:15;;;;;;;8.18;3.28;;;;;;;7.75;100.00;97504.91;5072208;28;20448;-85
2022/04/07 03:09:40;;;;;;;6.13;3.03;;;;;;;7.67;100.00;97500.06;5072540;28;20081;-84
2022/04/07 03:12:06;;;;;;;7.80;3.67;;;;;;;7.53;100.00;97487.66;5072817;28;20021;-87
2022/04/07 03:14:35;;;;;;;6.40;3.50;;;;;;;7.42;100.00;97485.69;5072460;28;20020;-85
2022/04/07 03:17:02;;;;;;;8.98;3.97;;;;;;;7.33;100.00;97472.03;5072912;28;20538;-85
2022/04/07 03:19:28;;;;;;;7.45;3.30;;;;;;;7.33;100.00;97465.88;5072926;28;20082;-85
2022/04/07 03:21:53;;;;;;;6.50;3.10;;;;;;;7.26;100.00;97463.59;5072711;28;20032;-84
2022/04/07 03:24:19;;;;;;;7.95;3.42;;;;;;;7.26;100.00;97466.25;5072825;28;20673;-86
2022/04/07 03:26:44;;;;;;;7.82;2.95;;;;;;;7.31;100.00;97473.06;5072282;28;20035;-85
2022/04/07 03:29:21;;;;;;;4.97;2.63;;;;;;;7.34;100.00;97464.94;5074868;28;20031;-85
2022/04/07 03:31:48;;;;;;;6.57;2.47;;;;;;;7.30;100.00;97456.28;5076480;28;20023;-86
2022/04/07 03:34:14;;;;;;;7.22;2.80;;;;;;;7.23;100.00;97465.59;5077126;28;20070;-85
2022/04/07 03:36:39;;;;;;;5.35;2.50;;;;;;;7.25;100.00;97443.31;5075869;28;20502;-84
2022/04/07 03:39:05;;;;;;;7.25;2.58;;;;;;;7.24;100.00;97446.91;5076015;28;20115;-83
2022/04/07 03:41:30;;;;;;;5.57;2.28;;;;;;;7.14;100.00;97441.31;5078407;28;20055;-83
2022/04/07 03:43:56;;;;;;;6.40;2.80;;;;;;;7.11;100.00;97435.38;5077633;28;20024;-84
2022/04/07 03:46:21;;;;;;;5.15;2.55;;;;;;;7.09;100.00;97435.44;5079012;28;20032;-84
2022/04/07 03:48:53;;;;;;;6.95;2.97;;;;;;;7.25;100.00;97434.50;5078025;28;20031;-85
2022/04/07 03:51:22;;;;;;;8.38;2.30;;;;;;;7.23;100.00;97413.38;5076769;28;20133;-85
2022/04/07 03:53:48;;;;;;;4.80;2.40;;;;;;;7.29;100.00;97395.34;5076043;28;20024;-86
2022/04/07 03:56:13;;;;;;;6.38;2.28;;;;;;;7.30;100.00;97412.97;5075082;28;20105;-87
2022/04/07 03:58:38;;;;;;;4.38;2.20;;;;;;;7.34;100.00;97398.56;5074914;28;20119;-84
2022/04/07 04:01:04;;;;;;;9.02;2.28;;;;;;;7.34;100.00;97402.09;5075340;28;20027;-85
2022/04/07 04:03:29;;;;;;;6.35;2.25;;;;;;;7.38;100.00;97392.09;5076671;28;20039;-84
2022/04/07 04:05:55;;;;;;;5.97;2.30;;;;;;;7.41;100.00;97393.72;5075467;28;20034;-83
2022/04/07 04:08:20;;;;;;;6.72;2.03;;;;;;;7.41;100.00;97383.09;5077058;28;20526;-84
2022/04/07 04:10:46;;;;;;;5.28;2.25;;;;;;;7.45;100.00;97355.38;5076534;28;20397;-85
2022/04/07 04:13:11;;;;;;;5.10;2.17;;;;;;;7.46;100.00;97360.59;5077403;28;20028;-83
2022/04/07 04:15:37;;;;;;;7.00;2.28;;;;;;;7.48;100.00;97353.41;5075402;28;20115;-84
2022/04/07 04:18:05;;;;;;;4.80;1.92;;;;;;;7.47;100.00;97351.69;5076037;28;20111;-84
2022/04/07 04:20:30;;;;;;;5.07;1.90;;;;;;;7.56;100.00;97349.38;5075899;28;20020;-84
2022/04/07 04:22:56;;;;;;;4.95;2.00;;;;;;;7.59;100.00;97362.47;5075836;28;20050;-83
2022/04/07 04:25:21;;;;;;;5.53;2.17;;;;;;;7.60;100.00;97345.59;5077343;28;20024;-83
2022/04/07 04:27:47;;;;;;;6.63;2.42;;;;;;;7.63;100.00;97342.72;5078002;28;20099;-84
2022/04/07 04:30:17;;;;;;;4.47;2.00;;;;;;;7.62;100.00;97338.38;5076936;28;20505;-84
2022/04/07 04:32:43;;;;;;;4.40;2.20;;;;;;;7.59;100.00;97349.19;5076338;28;20524;-87
2022/04/07 04:35:10;;;;;;;4.60;2.05;;;;;;;7.60;100.00;97332.31;5074293;28;20063;-85
2022/04/07 04:37:36;;;;;;;5.38;2.30;;;;;;;7.61;100.00;97326.03;5076052;28;20389;-84
2022/04/07 04:40:02;;;;;;;6.80;2.60;;;;;;;7.56;100.00;97315.72;5074221;28;20020;-85
2022/04/07 04:42:27;;;;;;;4.70;2.50;;;;;;;7.58;100.00;97313.81;5074662;28;20030;-86
2022/04/07 04:44:52;;;;;;;5.85;2.90;;;;;;;7.61;100.00;97315.41;5077218;28;20153;-85
2022/04/07 04:47:18;;;;;;;5.15;2.35;;;;;;;7.64;100.00;97298.44;5078376;28;20056;-85
2022/04/07 04:49:49;;;;;;;5.43;2.40;;;;;;;7.71;100.00;97310.34;5077162;28;20088;-86
2022/04/07 04:52:14;;;;;;;7.05;2.30;;;;;;;7.71;100.00;97302.38;5078213;28;20385;-84
2022/04/07 04:54:40;;;;;;;6.70;2.10;;;;;;;7.84;100.00;97299.75;5078971;28;20564;-86
2022/04/07 04:57:06;;;;;;;4.22;2.00;;;;;;;7.83;100.00;97311.34;5077835;28;20025;-86
2022/04/07 04:59:34;;;;;;;4.50;1.77;;;;;;;7.84;100.00;97307.72;5077763;28;20070;-85
2022/04/07 05:02:04;;;;;;;5.22;2.15;;;;;;;7.79;100.00;97293.88;5075575;28;20032;-85
2022/04/07 05:04:30;;;;;;;4.72;1.75;;;;;;;7.78;100.00;97273.63;5075370;28;20493;-86
2022/04/07 05:06:55;;;;;;;4.53;1.88;;;;;;;7.77;100.00;97285.19;5076714;28;20028;-85
2022/04/07 05:09:28;;;;;;;8.45;2.47;;;;;;;7.78;100.00;97293.03;5075589;28;20078;-85
2022/04/07 05:11:53;;;;;;;3.63;1.43;;;;;;;7.77;100.00;97298.47;5074437;28;20397;-84
2022/04/07 05:14:18;;;;;;;4.88;1.70;;;;;;;7.93;100.00;97269.91;5075602;28;20742;-84
2022/04/07 05:16:44;;;;;;;6.38;1.90;;;;;;;7.89;100.00;97260.44;5075495;28;20108;-86
2022/04/07 05:19:09;;;;;;;6.28;1.67;;;;;;;7.97;100.00;97259.06;5075954;28;20031;-84
2022/04/07 05:21:34;;;;;;;4.95;1.60;;;;;;;8.03;100.00;97256.00;5075888;28;20036;-85
2022/04/07 05:24:00;;;;;;;3.85;1.80;;;;;;;8.02;100.00;97244.50;5075923;28;20081;-84
2022/04/07 05:26:25;;;;;;;4.82;1.75;;;;;;;8.03;100.00;97251.53;5078489;28;20074;-84
2022/04/07 05:28:50;;;;;;;6.30;1.80;;;;;;;8.03;100.00;97232.09;5077975;28;20480;-84
2022/04/07 05:31:15;;;;;;;5.13;1.83;;;;;;;8.00;100.00;97241.13;5077198;28;20508;-84
2022/04/07 05:33:41;;;;;;;4.60;1.60;;;;;;;7.99;100.00;97214.66;5077167;28;20024;-84
2022/04/07 05:36:06;;;;;;;7.95;1.77;;;;;;;7.93;100.00;97230.06;5078266;28;20354;-84
2022/04/07 05:38:31;;;;;;;3.35;1.67;;;;;;;7.99;100.00;97212.00;5076208;28;20107;-85
2022/04/07 05:40:57;;;;;;;7.35;1.85;;;;;;;8.06;100.00;97207.97;5076617;28;20119;-84
2022/04/07 05:43:22;;;;;;;7.18;1.70;;;;;;;8.07;100.00;97214.09;5077428;28;20032;-84
2022/04/07 05:45:50;;;;;;;9.30;1.90;;;;;;;8.09;100.00;97189.13;5074481;28;20078;-84
2022/04/07 05:48:15;;;;;;;5.32;1.63;;;;;;;8.10;100.00;97185.53;5073070;28;20036;-83
2022/04/07 05:50:41;;;;;;;4.03;1.52;;;;;;;8.15;100.00;97183.38;5075304;28;20509;-84
2022/04/07 05:53:07;;;;;;;4.95;1.50;;;;;;;8.21;100.00;97195.41;5075284;28;20116;-85
2022/04/07 05:55:33;;;;;;;4.45;1.63;;;;;;;8.22;100.00;97175.81;5075073;28;20047;-85
2022/04/07 05:58:07;;;;;;;4.70;1.52;;;;;;;8.28;100.00;97158.59;5076783;28;20055;-85
2022/04/07 06:00:32;;;;;;;3.30;1.23;;;;;;;8.28;100.00;97150.63;5073912;28;20021;-85
2022/04/07 06:02:58;;;;;;;4.53;1.38;;;;;;;8.26;100.00;97118.00;5075311;28;20396;-84
2022/04/07 06:05:23;;;;;;;8.43;1.65;;;;;;;8.30;100.00;97119.44;5076725;28;20116;-85
2022/04/07 06:08:04;;;;;;;6.60;1.30;;;;;;;8.36;100.00;97119.03;5075977;28;20022;-85
2022/04/07 06:10:39;;;;;;;6.53;1.55;;;;;;;8.45;100.00;97138.75;5076842;28;20424;-85
2022/04/07 06:13:09;;;;;;;5.55;1.70;;;;;;;8.45;100.00;97129.97;5076374;28;20036;-85
2022/04/07 06:15:39;;;;;;;5.10;1.25;;;;;;;8.46;100.00;97123.66;5077413;28;20016;-84
2022/04/07 06:18:13;;;;;;;6.10;1.20;;;;;;;8.36;100.00;97124.34;5076787;28;20059;-85
2022/04/07 06:20:46;;;;;;;5.00;1.50;;;;;;;8.28;100.00;97118.72;5076480;28;20112;-83
2022/04/07 06:23:12;;;;;;;4.65;1.75;;;;;;;8.09;100.00;97101.44;5072654;28;20031;-84
2022/04/07 06:25:45;;;;;;;5.30;1.77;;;;;;;8.00;100.00;97096.78;5073977;28;20393;-83
2022/04/07 06:28:29;;;;;;;5.95;1.70;;;;;;;7.91;100.00;97090.31;5079960;28;20050;-84
2022/04/07 06:30:59;;;;;;;;;;;;;;;7.88;100.00;97059.50;5078921;28;20037;-83
2022/04/07 06:33:37;;;;;;;4.35;1.70;;;;;;;7.85;100.00;97065.03;5079231;28;19908;-84
2022/04/07 06:36:05;;;;;;;4.30;2.10;;;;;;;7.80;100.00;97054.75;5078490;28;20096;-84
2022/04/07 06:38:33;;;;;;;3.20;1.80;;;;;;;7.74;100.00;97035.72;5079228;28;20082;-84
2022/04/07 06:40:59;;;;;;;4.53;1.75;;;;;;;7.77;100.00;97027.53;5077500;28;20489;-83
2022/04/07 06:43:24;;;;;;;3.03;1.60;;;;;;;7.72;100.00;97025.22;5079207;28;20020;-85
2022/04/07 06:45:55;;;;;;;5.78;1.40;;;;;;;7.67;100.00;97017.56;5078054;28;20102;-84
2022/04/07 06:48:25;;;;;;;3.47;1.42;;;;;;;7.65;100.00;96992.94;5075662;28;20425;-83
2022/04/07 06:50:51;;;;;;;4.10;1.50;;;;;;;7.67;100.00;96996.34;5076396;28;20051;-84
2022/04/07 06:53:22;;;;;;;2.97;1.60;;;;;;;7.71;100.00;96986.31;5076184;28;20081;-84
2022/04/07 06:55:56;;;;;;;3.28;1.40;;;;;;;7.69;100.00;96991.75;5073155;28;20032;-84
2022/04/07 06:58:24;;;;;;;2.90;1.35;;;;;;;7.66;100.00;96984.00;5072339;28;20111;-84
2022/04/07 07:00:49;;;;;;;1.92;1.20;;;;;;;7.63;100.00;96975.44;5074078;28;20451;-83
2022/04/07 07:03:16;;;;;;;4.05;1.50;;;;;;;7.56;100.00;96967.03;5077359;28;20020;-84
2022/04/07 07:05:45;;;;;;;3.50;1.55;;;;;;;7.55;100.00;96960.03;5081730;28;20032;-84
2022/04/07 07:08:30;;;;;;;3.33;1.60;;;;;;;7.53;100.00;96940.69;5080842;28;20047;-84
2022/04/07 07:10:58;;;;;;;2.80;1.42;;;;;;;7.54;100.00;96942.41;5080548;28;20024;-84
2022/04/07 07:13:36;;;;;;;3.15;1.50;;;;;;;7.55;100.00;96938.81;5080711;28;20024;-84
2022/04/07 07:16:06;;;;;;;3.53;1.70;;;;;;;7.59;100.00;96927.84;5079184;28;20039;-84
2022/04/07 07:18:38;;;;;;;3.55;1.65;;;;;;;7.63;100.00;96909.88;5078983;28;20090;-84
2022/04/07 07:21:07;;;;;;;2.78;1.58;;;;;;;7.62;100.00;96924.13;5082029;28;20033;-84
2022/04/07 07:23:32;;;;;;;3.67;1.92;;;;;;;7.61;100.00;96919.75;5081496;28;20021;-82
2022/04/07 07:26:01;;;;;;;2.83;1.40;;;;;;;7.65;100.00;96902.66;5080435;28;20033;-84
2022/04/07 07:28:38;;;;;;;2.30;1.38;;;;;;;7.61;100.00;96901.16;5080138;28;20392;-84
2022/04/07 07:31:12;;;;;;;4.03;1.75;;;;;;;7.74;100.00;96916.19;5079298;28;20024;-85
2022/04/07 07:33:38;;;;;;;2.65;1.50;;;;;;;7.70;100.00;96905.81;5076308;28;20405;-84
2022/04/07 07:36:05;;;;;;;2.55;1.60;;;;;;;7.82;100.00;96908.53;5077506;28;20024;-85
2022/04/07 07:38:31;;;;;;;3.17;1.70;;;;;;;7.83;100.00;96902.28;5078834;28;20032;-84
2022/04/07 07:41:10;;;;;;;2.90;1.73;;;;;;;7.80;100.00;96894.53;5078880;28;20374;-84
2022/04/07 07:43:52;;;;;;;2.38;1.60;;;;;;;7.76;100.00;96901.00;5079141;28;20028;-85
2022/04/07 07:46:21;;;;;;;3.92;1.75;;;;;;;7.68;100.00;96905.06;5079455;28;20048;-84
2022/04/07 07:48:49;;;;;;;2.65;1.70;;;;;;;7.68;100.00;96893.63;5077324;28;20032;-84
2022/04/07 07:51:23;;;;;;;3.10;1.58;;;;;;;7.71;100.00;96896.03;5077388;28;20036;-85
2022/04/07 07:53:48;;;;;;;4.80;1.60;;;;;;;7.62;100.00;96870.16;5078769;28;20030;-85
2022/04/07 07:56:14;;;;;;;3.05;1.58;;;;;;;7.56;100.00;96882.91;5077883;28;20415;-84
2022/04/07 07:58:39;;;;;;;3.17;1.77;;;;;;;7.49;100.00;96871.91;5078699;28;20024;-83
2022/04/07 08:01:11;;;;;;;3.25;1.58;;;;;;;7.52;100.00;96877.94;5077521;28;20024;-84
2022/04/07 08:03:59;;;;;;;4.80;1.38;;;;;;;7.49;100.00;96869.25;5078367;28;20470;-85
2022/04/07 08:06:30;;;;;;;3.78;1.60;;;;;;;7.49;100.00;96871.91;5079033;28;20048;-83
2022/04/07 08:08:55;;;;;;;3.80;1.60;;;;;;;7.40;100.00;96872.56;5076192;28;20032;-84
2022/04/07 08:11:20;;;;;;;5.10;1.75;;;;;;;7.40;100.00;96858.44;5078284;28;20029;-85
2022/04/07 08:13:46;;;;;;;2.40;1.45;;;;;;;7.33;100.00;96836.81;5079029;28;20107;-85
2022/04/07 08:16:11;;;;;;;3.10;1.55;;;;;;;7.31;100.00;96817.50;5076283;28;20020;-84
2022/04/07 08:18:36;;;;;;;2.38;1.40;;;;;;;7.32;100.00;96829.81;5079007;28;20029;-84
2022/04/07 08:21:02;;;;;;;2.22;1.13;;;;;;;7.27;100.00;96816.84;5077947;28;20068;-84
2022/04/07 08:23:27;;;;;;;2.72;1.20;;;;;;;7.28;100.00;96815.06;5079213;28;20021;-85
2022/04/07 08:25:52;;;;;;;3.45;1.40;;;;;;;7.26;100.00;96813.38;5080308;28;20027;-83
2022/04/07 08:28:17;;;;;;;3.20;1.42;;;;;;;7.28;100.00;96801.78;5079039;28;20016;-85
2022/04/07 08:30:43;;;;;;;2.55;1.95;;;;;;;7.30;100.00;96834.38;5080733;28;20021;-85
2022/04/07 08:33:08;;;;;;;1.83;1.15;;;;;;;7.29;100.00;96811.47;5076532;28;20084;-85
2022/04/07 08:35:33;;;;;;;3.95;1.30;;;;;;;7.31;100.00;96789.16;5080784;28;20393;-85
2022/04/07 08:37:59;;;;;;;1.85;0.95;;;;;;;7.34;100.00;96794.25;5079754;28;20016;-85
2022/04/07 08:40:24;;;;;;;2.55;1.00;;;;;;;7.32;100.00;96758.97;5079857;28;20103;-85
2022/04/07 08:42:50;;;;;;;1.80;0.90;;;;;;;7.35;100.00;96772.03;5078317;28;20031;-84
2022/04/07 08:45:15;;;;;;;1.77;0.88;;;;;;;7.30;100.00;96760.06;5075665;28;20024;-85
2022/04/07 08:47:41;;;;;;;2.63;1.02;;;;;;;7.26;100.00;96778.03;5075738;28;20458;-85
2022/04/07 08:50:08;;;;;;;2.83;1.00;;;;;;;7.25;100.00;96769.22;5077253;28;20047;-83
2022/04/07 08:52:34;;;;;;;1.65;0.90;;;;;;;7.28;100.00;96756.69;5077903;28;20036;-86
2022/04/07 08:55:00;;;;;;;2.60;0.93;;;;;;;7.31;100.00;96756.47;5076855;28;20111;-85
2022/04/07 08:57:27;;;;;;;2.58;1.00;;;;;;;7.23;100.00;96744.59;5077059;28;20536;-86
2022/04/07 08:59:52;;;;;;;2.83;0.98;;;;;;;7.23;100.00;96720.72;5077349;28;20079;-82
2022/04/07 09:02:18;;;;;;;2.00;0.80;;;;;;;7.26;100.00;96724.97;5077651;28;20043;-84
2022/04/07 09:04:52;;;;;;;2.80;0.98;;;;;;;7.19;100.00;96705.16;5113984;22;20058;-85
2022/04/07 09:07:29;;;;;;;2.85;0.80;;;;;;;7.20;100.00;96702.38;5078008;28;20029;-85
2022/04/07 09:10:07;;;;;;;3.80;1.02;;;;;;;7.19;100.00;96679.44;5077892;28;20017;-85
2022/04/07 09:12:44;;;;;;;2.35;1.17;;;;;;;7.20;100.00;96685.59;5079678;28;20039;-84
2022/04/07 09:15:38;;;;;;;2.00;1.00;;;;;;;7.23;100.00;96675.59;5077165;28;20115;-83
2022/04/07 09:18:05;;;;;;;;;;;;;;;7.30;100.00;96628.22;5074110;28;20029;-86
2022/04/07 09:20:51;;;;;;;2.25;0.90;;;;;;;7.38;100.00;96646.22;5075594;28;20261;-84
2022/04/07 09:23:20;;;;;;;5.72;1.20;;;;;;;7.40;100.00;96638.97;5075193;28;20024;-84
2022/04/07 09:26:03;;;;;;;2.38;1.00;;;;;;;7.44;100.00;96624.53;5075566;28;20024;-85
2022/04/07 09:28:35;;;;;;;2.20;1.10;;;;;;;7.52;100.00;96604.50;5078230;28;20024;-85
2022/04/07 09:31:27;;;;;;;3.92;2.33;;;;;;;7.49;100.00;96590.50;5078586;28;20047;-84
2022/04/07 09:34:05;;;;;;;3.47;1.20;;;;;;;7.45;100.00;96581.06;5031298;28;20064;-86
2022/04/07 09:36:46;;;;;;;3.25;1.00;;;;;;;7.49;100.00;96590.50;5077696;28;20106;-86
2022/04/07 09:39:26;;;;;;;2.42;0.98;;;;;;;7.49;100.00;96621.50;5078464;28;20027;-86
2022/04/07 09:41:51;;;;;;;1.88;1.00;;;;;;;7.57;100.00;96741.25;5076579;28;20020;-85
2022/04/07 09:44:19;;;;;;;1.50;0.35;;;;;;;5.60;100.00;96758.41;5079073;28;20031;-84
2022/04/07 09:46:44;;;;;;;3.13;0.32;;;;;;;4.40;100.00;96748.34;5089687;28;20031;-87
2022/04/07 09:49:11;;;;;;;0.80;0.30;;;;;;;3.51;100.00;96807.22;5090058;28;20028;-87
2022/04/07 09:51:47;;;;;;;2.72;0.50;;;;;;;3.08;100.00;96766.53;5095132;28;20021;-86
2022/04/07 09:54:17;;;;;;;2.10;0.63;;;;;;;2.95;100.00;96795.34;5093591;28;20026;-87
2022/04/07 09:56:46;;;;;;;2.60;0.60;;;;;;;2.86;100.00;96770.38;5090705;28;20024;-85
2022/04/07 09:59:16;;;;;;;1.30;0.50;;;;;;;2.87;100.00;96772.06;5091650;28;20024;-86
2022/04/07 10:01:47;;;;;;;1.77;0.60;;;;;;;2.95;100.00;96801.50;5087265;28;20016;-86
2022/04/07 10:04:13;;;;;;;3.50;0.73;;;;;;;2.98;100.00;96806.59;5085509;28;20037;-86
2022/04/07 10:06:39;;;;;;;2.05;0.68;;;;;;;2.97;100.00;96828.59;5084246;28;20091;-86
2022/04/07 10:09:09;;;;;;;1.92;0.70;;;;;;;3.05;100.00;96811.50;5083686;28;20544;-86
2022/04/07 10:11:35;;;;;;;1.83;0.90;;;;;;;3.12;100.00;96797.03;5084309;28;20080;-87
2022/04/07 10:14:02;;;;;;;2.30;0.80;;;;;;;3.13;100.00;96778.53;5083428;28;20024;-86
2022/04/07 10:16:28;;;;;;;1.08;0.57;;;;;;;3.28;100.00;96775.94;5082422;28;20514;-86
2022/04/07 10:19:01;;;;;;;2.33;1.15;;;;;;;3.37;100.00;96779.84;5083761;28;20103;-86
2022/04/07 10:21:43;;;;;;;1.95;0.90;;;;;;;3.51;100.00;96771.13;5083439;28;20461;-87
2022/04/07 10:24:20;;;;;;;1.80;0.70;;;;;;;3.59;100.00;96741.66;5082126;28;20033;-87
2022/04/07 10:26:47;;;;;;;2.45;0.90;;;;;;;3.77;100.00;96729.19;5081741;28;20086;-86
2022/04/07 10:29:22;;;;;;;1.70;0.95;;;;;;;3.88;100.00;96744.38;5082886;28;20028;-85
2022/04/07 10:32:13;;;;;;;1.15;0.80;;;;;;;4.06;100.00;96733.63;5077758;28;20485;-86
2022/04/07 10:34:43;;;;;;;1.77;0.90;;;;;;;4.07;100.00;96718.66;5076392;28;20074;-86
2022/04/07 10:37:09;;;;;;;3.10;1.10;;;;;;;4.42;100.00;96720.03;5079236;28;20078;-86
2022/04/07 10:39:39;;;;;;;2.42;1.25;;;;;;;4.64;100.00;96711.59;5084598;28;20084;-86
2022/04/07 10:42:05;;;;;;;2.53;1.00;;;;;;;4.79;100.00;96701.84;5084973;28;20024;-86
2022/04/07 10:44:33;;;;;;;1.92;0.82;;;;;;;4.98;100.00;96708.59;5085955;28;20020;-86
2022/04/07 10:47:06;;;;;;;1.58;0.70;;;;;;;5.15;100.00;96714.59;5087380;28;20362;-86
2022/04/07 10:49:33;;;;;;;2.70;0.70;;;;;;;5.50;100.00;96696.44;5085404;28;20500;-85
2022/04/07 10:52:02;;;;;;;2.38;0.77;;;;;;;5.70;100.00;96697.75;5085873;28;20516;-86
2022/04/07 10:54:30;;;;;;;1.60;0.70;;;;;;;5.65;100.00;96699.84;5085016;28;20017;-87
2022/04/07 10:56:59;;;;;;;1.15;0.60;;;;;;;5.87;100.00;96709.00;5085703;28;20031;-86
2022/04/07 10:59:39;;;;;;;1.95;0.90;;;;;;;6.11;100.00;96701.19;5086230;28;20029;-86
2022/04/07 11:02:06;;;;;;;2.15;0.65;;;;;;;6.11;100.00;96702.97;5085128;28;20028;-85
2022/04/07 11:04:58;;;;;;;2.55;0.70;;;;;;;6.24;100.00;96705.63;5083107;28;20028;-85
2022/04/07 11:07:24;;;;;;;3.15;0.90;;;;;;;6.70;100.00;96709.44;5082005;28;20055;-85
2022/04/07 11:09:49;;;;;;;3.20;1.00;;;;;;;6.68;100.00;96711.38;5078138;28;20020;-84
2022/04/07 11:12:24;;;;;;;3.08;0.85;;;;;;;6.80;100.00;96717.56;5079087;28;20028;-84
2022/04/07 11:14:53;;;;;;;3.67;0.98;;;;;;;6.73;100.00;96745.50;5081188;28;20039;-84
2022/04/07 11:17:36;;;;;;;1.65;0.82;;;;;;;6.70;100.00;96748.41;5080750;28;20028;-86
2022/04/07 11:20:15;;;;;;;2.97;0.88;;;;;;;6.79;100.00;96726.50;5082614;28;20039;-86
2022/04/07 11:22:57;;;;;;;2.22;0.90;;;;;;;6.98;100.00;96742.91;5084745;28;20028;-85
2022/04/07 11:25:31;;;;;;;1.60;0.98;;;;;;;7.13;100.00;96738.28;5084476;28;20020;-86
2022/04/07 11:28:17;;;;;;;3.72;1.10;;;;;;;7.15;100.00;96742.50;5083605;28;20024;-84
2022/04/07 11:30:48;;;;;;;2.60;1.10;;;;;;;6.98;100.00;96741.09;5082500;28;20026;-85
2022/04/07 11:33:28;;;;;;;3.70;1.20;;;;;;;7.20;100.00;96751.94;5084689;28;20020;-85
2022/04/07 11:36:33;;;;;;;3.35;1.40;;;;;;;7.37;100.00;96750.72;5082837;28;20021;-84
2022/04/07 11:39:02;;;;;;;4.05;1.10;;;;;;;7.33;100.00;96758.03;5083232;28;20437;-85
2022/04/07 11:41:36;;;;;;;2.97;1.10;;;;;;;7.57;100.00;96764.28;5083210;28;20062;-84